createdAt,value
2022-11-14T05:03:09.838Z,101291.52
2022-11-14T05:06:00.214Z,101289.53
2022-11-14T05:08:46.303Z,101288.34
2022-11-14T05:11:32.366Z,101289.88
2022-11-14T05:14:19.312Z,101284.34
2022-11-14T05:17:06.214Z,101281.18
2022-11-14T05:19:52.981Z,101275.40
2022-11-14T05:22:39.626Z,101275.11
2022-11-14T05:25:27.402Z,101279.44
2022-11-14T05:28:17.016Z,101280.01
2022-11-14T05:31:18.945Z,101279.21
2022-11-14T05:34:05.332Z,101276.98
2022-11-14T05:36:51.987Z,101276.29
2022-11-14T05:39:38.678Z,101281.70
2022-11-14T05:42:25.688Z,101281.05
2022-11-14T05:45:12.057Z,101281.20
2022-11-14T05:47:58.949Z,101282.24
2022-11-14T05:50:44.743Z,101278.11
2022-11-14T05:53:32.235Z,101277.70
2022-11-14T05:56:18.934Z,101280.52
2022-11-14T05:59:05.685Z,101281.13
2022-11-14T06:01:52.390Z,101280.20
2022-11-14T06:04:38.883Z,101282.56
2022-11-14T06:07:25.315Z,101282.36
2022-11-14T06:10:12.229Z,101286.11
2022-11-14T06:12:58.901Z,101286.95
2022-11-14T06:15:45.849Z,101284.42
2022-11-14T06:18:34.410Z,101289.52
2022-11-14T06:21:23.369Z,101292.35
2022-11-14T06:24:10.114Z,101295.19
2022-11-14T06:26:56.304Z,101295.04
2022-11-14T06:29:43.152Z,101296.85
2022-11-14T06:32:29.997Z,101299.02
2022-11-14T06:35:16.682Z,101295.23
2022-11-14T06:38:03.551Z,101301.35
2022-11-14T06:40:50.137Z,101295.28
2022-11-14T06:43:37.996Z,101296.98
2022-11-14T06:46:25.043Z,101301.50
2022-11-14T06:49:12.079Z,101299.71
2022-11-14T06:51:58.559Z,101301.56
2022-11-14T06:54:45.258Z,101302.55
2022-11-14T06:57:31.838Z,101295.27
2022-11-14T07:00:17.846Z,101297.20
2022-11-14T07:03:04.827Z,101300.92
2022-11-14T07:05:51.328Z,101299.86
2022-11-14T07:08:38.272Z,101302.05
2022-11-14T07:11:28.746Z,101300.71
2022-11-14T07:14:15.481Z,101296.56
2022-11-14T07:17:01.700Z,101302.43
2022-11-14T07:19:48.655Z,101296.20
2022-11-14T07:22:34.664Z,101298.84
2022-11-14T07:25:23.420Z,101299.48
2022-11-14T07:28:09.892Z,101293.27
2022-11-14T07:30:56.587Z,101291.23
2022-11-14T07:33:44.172Z,101284.56
2022-11-14T07:36:30.453Z,101290.64
2022-11-14T07:39:16.971Z,101290.91
2022-11-14T07:42:03.499Z,101294.63
2022-11-14T07:44:49.795Z,101295.27
2022-11-14T07:47:37.953Z,101293.87
2022-11-14T07:50:28.452Z,101291.55
2022-11-14T07:53:16.311Z,101288.71
2022-11-14T07:56:05.930Z,101286.25
2022-11-14T07:58:52.782Z,101284.98
2022-11-14T08:01:39.932Z,101283.28
2022-11-14T08:04:27.590Z,101282.17
2022-11-14T08:07:13.955Z,101279.67
2022-11-14T08:10:00.635Z,101282.26
2022-11-14T08:12:56.223Z,101281.64
2022-11-14T08:15:50.901Z,101275.39
2022-11-14T08:18:40.717Z,101267.92
2022-11-14T08:21:27.487Z,101263.73
2022-11-14T08:24:14.434Z,101258.69
2022-11-14T08:27:00.931Z,101258.25
2022-11-14T08:29:47.020Z,101255.68
2022-11-14T08:32:34.845Z,101256.96
2022-11-14T08:35:21.896Z,101261.91
2022-11-14T08:38:16.172Z,101261.27
2022-11-14T08:41:08.155Z,101259.40
2022-11-14T08:44:00.196Z,101261.08
2022-11-14T08:46:52.023Z,101262.10
2022-11-14T08:49:39.394Z,101259.14
2022-11-14T08:52:55.543Z,101255.06
2022-11-14T08:55:47.581Z,101253.92
2022-11-14T08:58:34.155Z,101251.56
2022-11-14T09:01:20.957Z,101252.98
2022-11-14T09:04:26.402Z,101244.90
2022-11-14T09:07:32.779Z,101248.13
2022-11-14T09:10:18.942Z,101242.67
2022-11-14T09:13:06.540Z,101237.64
2022-11-14T09:15:52.632Z,101241.49
2022-11-14T09:18:39.031Z,101240.42
2022-11-14T09:21:25.675Z,101234.85
2022-11-14T09:24:11.591Z,101232.33
2022-11-14T09:26:57.898Z,101223.27
2022-11-14T09:30:36.874Z,101216.70
2022-11-14T09:34:16.909Z,101216.70
2022-11-14T09:37:03.199Z,101219.17
2022-11-14T09:39:50.957Z,101214.23
2022-11-14T09:43:31.866Z,101217.15
2022-11-14T09:46:40.509Z,101218.86
2022-11-14T09:53:29.811Z,101214.41
2022-11-14T09:56:25.844Z,101220.23
2022-11-14T09:59:13.283Z,101216.39
2022-11-14T10:02:20.435Z,101210.29
2022-11-14T10:05:23.275Z,101207.13
2022-11-14T10:08:20.648Z,101204.27
2022-11-14T10:11:14.319Z,101201.74
2022-11-14T10:14:38.274Z,101198.71
2022-11-14T10:17:47.706Z,101193.52
2022-11-14T10:21:11.480Z,101190.33
2022-11-14T10:24:10.184Z,101187.05
2022-11-14T10:27:06.655Z,101181.96
2022-11-14T10:30:02.187Z,101179.53
2022-11-14T10:33:04.316Z,101180.17
2022-11-14T10:36:02.255Z,101168.26
2022-11-14T10:39:04.706Z,101167.46
2022-11-14T10:42:01.037Z,101165.41
2022-11-14T10:45:11.559Z,101157.02
2022-11-14T10:48:09.874Z,101153.96
2022-11-14T10:51:00.425Z,101149.25
2022-11-14T10:53:50.695Z,101148.84
2022-11-14T10:56:52.011Z,101141.21
2022-11-14T10:59:39.243Z,101138.64
2022-11-14T11:02:25.734Z,101130.11
2022-11-14T11:05:27.694Z,101133.47
2022-11-14T11:08:44.192Z,101127.58
2022-11-14T11:11:32.362Z,101122.91
2022-11-14T11:14:20.428Z,101120.39
2022-11-14T11:17:18.055Z,101120.50
2022-11-14T11:21:12.863Z,101116.05
2022-11-14T11:24:05.310Z,101108.45
2022-11-14T11:27:21.509Z,101104.21
2022-11-14T11:30:39.181Z,101101.55
2022-11-14T11:33:31.685Z,101102.50
2022-11-14T11:36:23.840Z,101099.34
2022-11-14T11:39:24.595Z,101099.86
2022-11-14T11:42:21.729Z,101095.70
2022-11-14T11:45:18.162Z,101091.71
2022-11-14T11:48:09.405Z,101088.98
2022-11-14T11:50:57.437Z,101087.60
2022-11-14T11:53:51.699Z,101085.48
2022-11-14T11:56:39.383Z,101082.73
2022-11-14T11:59:56.668Z,101084.05
2022-11-14T12:02:50.216Z,101083.02
2022-11-14T12:05:53.779Z,101083.40
2022-11-14T12:08:40.516Z,101081.57
2022-11-14T12:11:32.046Z,101079.58
2022-11-14T12:14:55.281Z,101085.59
2022-11-14T12:17:55.443Z,101093.94
2022-11-14T12:21:00.381Z,101088.30
2022-11-14T12:24:13.636Z,101083.96
2022-11-14T12:27:24.808Z,101082.48
2022-11-14T12:30:46.151Z,101072.16
2022-11-14T12:33:39.917Z,101074.65
2022-11-14T12:36:33.836Z,101074.49
2022-11-14T12:39:29.894Z,101069.48
2022-11-14T12:42:21.775Z,101059.79
2022-11-14T12:45:36.349Z,101057.86
2022-11-14T12:48:32.463Z,101055.77
2022-11-14T12:51:28.050Z,101051.96
2022-11-14T12:54:47.215Z,101050.82
2022-11-14T12:57:48.484Z,101058.98
2022-11-14T13:01:28.775Z,101057.29
2022-11-14T13:13:13.915Z,101051.86
2022-11-14T13:16:59.829Z,101050.07
2022-11-14T13:28:11.235Z,101032.13
2022-11-14T13:31:20.122Z,101026.81
2022-11-14T13:34:42.728Z,101030.02
2022-11-14T13:38:18.132Z,101025.73
2022-11-14T13:45:25.662Z,101027.81
2022-11-14T13:48:27.164Z,101024.94
2022-11-14T13:51:41.602Z,101025.00
2022-11-14T13:54:25.000Z,101021.50
2022-11-14T13:58:09.953Z,101012.64
2022-11-14T14:01:48.945Z,101010.03
2022-11-14T14:04:59.787Z,101009.12
2022-11-14T14:08:20.051Z,101003.29
2022-11-14T14:11:23.892Z,101003.92
2022-11-14T14:14:33.474Z,101002.68
2022-11-14T14:17:48.298Z,100999.23
2022-11-14T14:21:39.566Z,100995.33
2022-11-14T14:25:01.745Z,100989.63
2022-11-14T14:28:06.297Z,100984.23
2022-11-14T14:31:08.444Z,100974.92
2022-11-14T14:33:55.186Z,100965.39
2022-11-14T14:36:51.275Z,100962.68
2022-11-14T14:39:37.871Z,100962.23
2022-11-14T14:42:29.453Z,100960.04
2022-11-14T14:45:20.800Z,100961.66
2022-11-14T14:48:33.009Z,100958.85
2022-11-14T14:51:31.405Z,100958.35
2022-11-14T14:54:24.549Z,100951.55
2022-11-14T14:57:21.296Z,100952.13
2022-11-14T15:00:30.543Z,100953.09
2022-11-14T15:03:19.452Z,100958.86
2022-11-14T15:06:30.606Z,100958.40
2022-11-14T15:09:29.935Z,100950.30
2022-11-14T15:12:16.984Z,100952.05
2022-11-14T15:15:04.477Z,100950.11
2022-11-14T15:17:51.296Z,100947.33
2022-11-14T15:20:37.811Z,100947.54
2022-11-14T15:23:24.027Z,100939.91
2022-11-14T15:26:19.121Z,100936.80
2022-11-14T15:29:13.318Z,100937.13
2022-11-14T15:32:02.171Z,100936.62
2022-11-14T15:35:08.646Z,100932.87
2022-11-14T15:38:43.021Z,100929.66
2022-11-14T15:41:28.788Z,100930.86
2022-11-14T15:44:32.518Z,100931.52
2022-11-14T15:47:21.322Z,100929.77
2022-11-14T15:50:13.558Z,100928.30
2022-11-14T15:53:06.266Z,100926.95
2022-11-14T15:55:52.344Z,100927.79
2022-11-14T15:58:38.610Z,100924.67
2022-11-14T16:01:28.734Z,100925.42
2022-11-14T16:04:20.559Z,100923.88
2022-11-14T16:07:06.716Z,100925.00
2022-11-14T16:09:52.995Z,100924.13
2022-11-14T16:12:39.351Z,100919.20
2022-11-14T16:15:25.515Z,100913.66
2022-11-14T16:18:12.126Z,100912.42
2022-11-14T16:20:59.990Z,100909.23
2022-11-14T16:23:45.982Z,100905.90
2022-11-14T16:26:33.114Z,100908.75
2022-11-14T16:29:19.988Z,100904.88
2022-11-14T16:32:06.439Z,100905.45
2022-11-14T16:34:53.295Z,100902.33
2022-11-14T16:37:39.952Z,100898.79
2022-11-14T16:40:28.853Z,100897.27
2022-11-14T16:43:15.256Z,100894.37
2022-11-14T16:46:06.257Z,100893.42
2022-11-14T16:48:52.872Z,100885.09
2022-11-14T16:51:48.245Z,100884.23
2022-11-14T16:54:35.943Z,100882.06
2022-11-14T16:57:22.085Z,100879.84
2022-11-14T17:00:13.104Z,100877.52
2022-11-14T17:02:59.403Z,100869.05
2022-11-14T17:05:48.931Z,100872.04
2022-11-14T17:08:35.582Z,100874.33
2022-11-14T17:11:23.470Z,100874.35
2022-11-14T17:14:09.991Z,100866.74
2022-11-14T17:16:56.166Z,100860.14
2022-11-14T17:19:46.320Z,100859.62
2022-11-14T17:22:32.838Z,100861.17
2022-11-14T17:25:19.747Z,100859.48
2022-11-14T17:28:05.892Z,100859.09
2022-11-14T17:30:52.521Z,100853.23
2022-11-14T17:33:38.907Z,100858.88
2022-11-14T17:36:27.943Z,100858.54
2022-11-14T17:39:14.200Z,100860.45
2022-11-14T17:42:00.336Z,100857.29
2022-11-14T17:44:46.287Z,100857.25
2022-11-14T17:47:32.006Z,100856.92
2022-11-14T17:50:18.419Z,100849.58
2022-11-14T17:53:04.560Z,100849.71
2022-11-14T17:55:57.680Z,100848.61
2022-11-14T17:58:44.999Z,100847.31
2022-11-14T18:01:32.001Z,100845.20
2022-11-14T18:04:18.057Z,100840.23
2022-11-14T18:07:04.127Z,100842.18
2022-11-14T18:09:50.955Z,100839.25
2022-11-14T18:12:37.253Z,100839.55
2022-11-14T18:15:27.804Z,100838.73
2022-11-14T18:18:14.267Z,100837.56
2022-11-14T18:21:20.135Z,100834.42
2022-11-14T18:24:06.851Z,100832.98
2022-11-14T18:26:53.565Z,100831.84
2022-11-14T18:29:41.138Z,100835.61
2022-11-14T18:32:27.215Z,100832.85
2022-11-14T18:35:12.939Z,100832.80
2022-11-14T18:37:58.989Z,100832.17
2022-11-14T18:40:45.101Z,100827.08
2022-11-14T18:43:32.980Z,100827.22
2022-11-14T18:46:24.267Z,100822.29
2022-11-14T18:49:11.566Z,100824.37
2022-11-14T18:51:57.460Z,100823.13
2022-11-14T18:54:43.735Z,100827.48
2022-11-14T18:57:30.132Z,100824.75
2022-11-14T19:00:17.836Z,100818.54
2022-11-14T19:03:06.452Z,100815.69
2022-11-14T19:05:53.108Z,100817.64
2022-11-14T19:08:40.121Z,100811.52
2022-11-14T19:11:45.598Z,100811.48
2022-11-14T19:14:32.737Z,100814.66
2022-11-14T19:17:24.583Z,100809.16
2022-11-14T19:20:14.529Z,100809.84
2022-11-14T19:23:02.602Z,100811.85
2022-11-14T19:25:48.903Z,100811.21
2022-11-14T19:28:35.375Z,100810.08
2022-11-14T19:31:22.980Z,100813.56
2022-11-14T19:34:10.609Z,100810.22
2022-11-14T19:37:01.224Z,100805.90
2022-11-14T19:39:47.739Z,100803.89
2022-11-14T19:42:34.068Z,100800.35
2022-11-14T19:45:20.069Z,100798.00
2022-11-14T19:48:06.695Z,100799.42
2022-11-14T19:51:26.404Z,100794.09
2022-11-14T19:54:12.503Z,100785.47
2022-11-14T19:56:58.571Z,100785.00
2022-11-14T19:59:44.889Z,100783.87
2022-11-14T20:02:30.801Z,100779.70
2022-11-14T20:05:18.976Z,100780.58
2022-11-14T20:08:05.112Z,100769.86
2022-11-14T20:11:07.122Z,100766.82
2022-11-14T20:13:53.890Z,100770.75
2022-11-14T20:16:40.362Z,100765.81
2022-11-14T20:19:27.988Z,100767.09
2022-11-14T20:22:14.188Z,100762.69
2022-11-14T20:25:00.496Z,100762.21
2022-11-14T20:27:46.491Z,100763.75
2022-11-14T20:30:32.742Z,100760.00
2022-11-14T20:33:18.700Z,100757.52
2022-11-14T20:36:07.693Z,100757.46
2022-11-14T20:38:54.432Z,100754.92
2022-11-14T20:41:41.505Z,100749.73
2022-11-14T20:44:27.878Z,100740.06
2022-11-14T20:47:14.001Z,100735.52
2022-11-14T20:49:59.908Z,100729.95
2022-11-14T20:52:48.127Z,100720.91
2022-11-14T20:55:34.314Z,100718.27
2022-11-14T20:58:21.350Z,100712.90
2022-11-14T21:01:09.992Z,100710.21
2022-11-14T21:04:00.390Z,100710.36
2022-11-14T21:06:46.630Z,100703.73
2022-11-14T21:09:32.879Z,100700.55
2022-11-14T21:12:18.883Z,100695.37
2022-11-14T21:15:07.787Z,100697.36
2022-11-14T21:17:53.585Z,100689.14
2022-11-14T21:20:39.354Z,100691.41
2022-11-14T21:23:25.738Z,100692.05
2022-11-14T21:26:20.239Z,100687.31
2022-11-14T21:29:09.462Z,100689.75
2022-11-14T21:31:56.247Z,100687.95
2022-11-14T21:34:42.331Z,100682.17
2022-11-14T21:37:28.855Z,100682.47
2022-11-14T21:40:15.397Z,100675.34
2022-11-14T21:43:02.083Z,100670.83
2022-11-14T21:45:55.711Z,100667.20
2022-11-14T21:48:42.035Z,100666.92
2022-11-14T21:51:29.545Z,100659.45
2022-11-14T21:54:15.672Z,100662.94
2022-11-14T21:57:05.616Z,100661.29
2022-11-14T21:59:55.542Z,100656.25
2022-11-14T22:03:02.599Z,100660.35
2022-11-14T22:05:48.646Z,100655.88
2022-11-14T22:08:35.451Z,100652.78
2022-11-14T22:11:23.139Z,100654.75
2022-11-14T22:14:09.610Z,100655.65
2022-11-14T22:16:56.223Z,100657.35
2022-11-14T22:19:42.078Z,100650.66
2022-11-14T22:22:29.206Z,100647.51
2022-11-14T22:25:16.148Z,100641.75
2022-11-14T22:28:02.682Z,100647.41
2022-11-14T22:30:49.825Z,100640.38
2022-11-14T22:33:41.477Z,100642.39
2022-11-14T22:36:30.715Z,100639.35
2022-11-14T22:39:20.385Z,100637.30
2022-11-14T22:42:06.674Z,100635.29
2022-11-14T22:44:52.938Z,100632.63
2022-11-14T22:47:39.168Z,100628.11
2022-11-14T22:50:25.246Z,100626.01
2022-11-14T22:53:11.398Z,100623.23
2022-11-14T22:55:59.227Z,100616.58
2022-11-14T22:58:46.757Z,100614.23
2022-11-14T23:01:34.406Z,100610.00
2022-11-14T23:04:20.414Z,100610.80
2022-11-14T23:07:07.120Z,100603.20
2022-11-14T23:09:53.155Z,100601.58
2022-11-14T23:12:39.080Z,100597.49
2022-11-14T23:15:25.546Z,100599.36
2022-11-14T23:18:12.347Z,100594.29
2022-11-14T23:21:04.966Z,100594.46
2022-11-14T23:23:56.382Z,100587.52
2022-11-14T23:26:42.615Z,100586.97
2022-11-14T23:29:29.181Z,100587.51
2022-11-14T23:32:16.004Z,100581.95
2022-11-14T23:35:02.949Z,100583.55
2022-11-14T23:37:49.543Z,100579.41
2022-11-14T23:40:35.796Z,100583.13
2022-11-14T23:43:22.758Z,100586.76
2022-11-14T23:46:09.206Z,100582.27
2022-11-14T23:48:56.190Z,100580.33
2022-11-14T23:51:42.730Z,100580.14
2022-11-14T23:54:29.225Z,100576.13
2022-11-14T23:57:15.742Z,100572.59
